createdAt,value
2024-04-11T20:52:36.046Z,102687.31
2024-04-11T20:55:21.072Z,102693.69
2024-04-11T20:58:06.007Z,102690.13
2024-04-11T21:00:51.049Z,102692.41
2024-04-11T21:03:36.711Z,102692.84
2024-04-11T21:06:22.864Z,102691.13
2024-04-11T21:09:08.384Z,102692.41
2024-04-11T21:11:54.382Z,102689.72
2024-04-11T21:14:39.530Z,102694.97
2024-04-11T21:17:24.912Z,102691.41
2024-04-11T21:20:11.252Z,102695.34
2024-04-11T21:22:56.882Z,102687.31
2024-04-11T21:25:43.553Z,102695.50
2024-04-11T21:28:29.074Z,102689.84
2024-04-11T21:31:15.114Z,102696.50
2024-04-11T21:33:49.555Z,102685.75
2024-04-11T21:36:20.340Z,102694.81
2024-04-11T21:38:48.408Z,102691.97
2024-04-11T21:41:30.320Z,102695.66
2024-04-11T21:43:57.772Z,102702.16
2024-04-11T21:46:40.032Z,102692.25
2024-04-11T21:49:07.653Z,102694.38
2024-04-11T21:51:35.457Z,102697.63
2024-04-11T21:54:03.694Z,102701.19
2024-04-11T21:56:33.779Z,102700.91
2024-04-11T21:59:01.452Z,102703.81
2024-04-11T22:01:44.980Z,102703.41
2024-04-11T22:04:19.812Z,102697.88
2024-04-11T22:06:57.639Z,102703.84
2024-04-11T22:09:26.038Z,102710.91
2024-04-11T22:11:53.180Z,102711.22
2024-04-11T22:14:41.492Z,102712.19
2024-04-11T22:17:16.489Z,102708.97
2024-04-11T22:19:43.019Z,102714.63
2024-04-11T22:22:13.925Z,102714.88
2024-04-11T22:24:47.255Z,102730.56
2024-04-11T22:27:14.894Z,102721.69
2024-04-11T22:29:44.375Z,102709.50
2024-04-11T22:32:13.874Z,102715.19
2024-04-11T22:34:45.356Z,102710.94
2024-04-11T22:37:23.830Z,102712.38
2024-04-11T22:39:51.776Z,102714.88
2024-04-11T22:42:20.680Z,102721.34
2024-04-11T22:44:49.095Z,102716.94
2024-04-11T22:47:19.709Z,102725.88
2024-04-11T22:49:48.095Z,102720.34
2024-04-11T22:52:33.313Z,102711.13
2024-04-11T22:55:07.736Z,102725.53
2024-04-11T22:57:38.735Z,102722.38
2024-04-11T23:00:26.221Z,102721.13
2024-04-11T23:02:54.324Z,102726.75
2024-04-11T23:05:22.660Z,102723.34
2024-04-11T23:07:58.838Z,102718.84
2024-04-11T23:10:39.720Z,102723.75
2024-04-11T23:13:15.218Z,102721.88
2024-04-11T23:15:54.277Z,102726.13
2024-04-11T23:18:22.913Z,102734.78
2024-04-11T23:21:03.716Z,102734.41
2024-04-11T23:23:38.860Z,102726.53
2024-04-11T23:26:06.850Z,102730.16
2024-04-11T23:28:33.424Z,102720.56
2024-04-11T23:31:06.310Z,102726.41
2024-04-11T23:33:35.264Z,102723.44
2024-04-11T23:36:08.129Z,102728.09
2024-04-11T23:38:37.153Z,102719.25
2024-04-11T23:41:08.398Z,102723.25
2024-04-11T23:43:47.252Z,102725.81
2024-04-11T23:46:36.865Z,102727.44
2024-04-11T23:49:09.520Z,102733.75
2024-04-11T23:51:50.004Z,102732.81
2024-04-11T23:54:23.031Z,102729.72
2024-04-11T23:57:01.332Z,102727.47
2024-04-11T23:59:38.246Z,102723.81
